createdAt,value
2023-05-12T00:01:21.903Z,4.72
2023-05-12T00:04:23.490Z,5.03
2023-05-12T00:07:25.266Z,5.40
2023-05-12T00:10:28.550Z,5.18
2023-05-12T00:13:30.204Z,4.72
2023-05-12T00:16:31.988Z,5.63
2023-05-12T00:19:34.628Z,5.63
2023-05-12T00:22:36.392Z,5.57
2023-05-12T00:25:37.986Z,5.32
2023-05-12T00:28:39.573Z,4.95
2023-05-12T00:31:41.439Z,4.97
2023-05-12T00:34:43.382Z,4.80
2023-05-12T00:37:45.032Z,7.05
2023-05-12T00:40:46.730Z,4.82
2023-05-12T00:43:48.343Z,5.28
2023-05-12T00:46:50.625Z,4.60
2023-05-12T00:49:52.477Z,6.38
2023-05-12T00:52:54.510Z,5.85
2023-05-12T00:55:57.617Z,5.07
2023-05-12T00:59:01.534Z,5.13
2023-05-12T01:02:03.713Z,5.72
2023-05-12T01:05:06.709Z,4.63
2023-05-12T01:08:09.492Z,6.18
2023-05-12T01:11:11.216Z,5.85
2023-05-12T01:14:13.692Z,6.13
2023-05-12T01:17:19.830Z,4.85
2023-05-12T01:23:31.206Z,5.10
2023-05-12T01:26:33.433Z,5.13
2023-05-12T01:29:36.894Z,5.70
2023-05-12T01:32:40.239Z,5.30
2023-05-12T01:35:42.573Z,5.68
2023-05-12T01:38:45.227Z,5.15
2023-05-12T01:41:47.432Z,6.68
2023-05-12T01:44:49.302Z,7.43
2023-05-12T01:47:51.104Z,6.90
2023-05-12T01:50:52.816Z,9.65
2023-05-12T01:53:56.326Z,10.10
2023-05-12T01:56:58.120Z,10.23
2023-05-12T02:00:00.851Z,10.45
2023-05-12T02:03:03.646Z,9.02
2023-05-12T02:06:05.679Z,10.55
2023-05-12T02:09:07.569Z,10.88
2023-05-12T02:12:09.444Z,10.10
2023-05-12T02:15:11.213Z,10.38
2023-05-12T02:18:20.540Z,10.30
2023-05-12T02:21:22.878Z,9.85
2023-05-12T02:24:26.445Z,11.38
2023-05-12T02:27:28.302Z,10.95
2023-05-12T02:30:30.387Z,10.90
2023-05-12T02:33:32.027Z,10.98
2023-05-12T02:36:33.844Z,12.70
2023-05-12T02:39:35.581Z,12.25
2023-05-12T02:42:38.575Z,11.32
2023-05-12T02:45:40.474Z,13.63
2023-05-12T02:48:42.937Z,12.98
2023-05-12T02:51:44.556Z,11.13
2023-05-12T02:54:46.505Z,11.95
2023-05-12T02:57:48.147Z,11.95
2023-05-12T03:00:56.902Z,11.70
2023-05-12T03:04:05.016Z,12.88
2023-05-12T03:07:07.325Z,12.80
2023-05-12T03:10:12.256Z,12.85
2023-05-12T03:13:13.831Z,13.90
2023-05-12T03:16:18.942Z,12.25
2023-05-12T03:19:21.406Z,11.25
2023-05-12T03:22:24.905Z,12.68
2023-05-12T03:25:26.592Z,11.80
2023-05-12T03:28:28.461Z,12.25
2023-05-12T03:31:30.197Z,13.45
2023-05-12T03:34:32.494Z,14.25
2023-05-12T03:37:34.769Z,14.30
2023-05-12T03:40:36.784Z,13.70
2023-05-12T03:43:38.357Z,14.30
2023-05-12T03:46:40.101Z,13.13
2023-05-12T03:49:41.865Z,13.70
2023-05-12T03:52:43.863Z,13.95
2023-05-12T03:55:46.134Z,13.18
2023-05-12T03:58:47.971Z,15.32
2023-05-12T04:01:53.451Z,14.32
2023-05-12T04:04:55.235Z,15.48
2023-05-12T04:07:56.829Z,14.43
2023-05-12T04:10:59.519Z,14.73
2023-05-12T04:14:01.260Z,13.60
2023-05-12T04:17:02.901Z,14.68
2023-05-12T04:20:04.927Z,13.55
2023-05-12T04:23:06.812Z,14.93
2023-05-12T04:26:08.442Z,14.88
2023-05-12T04:29:10.350Z,15.20
2023-05-12T04:32:12.224Z,15.50
2023-05-12T04:35:14.714Z,16.00
2023-05-12T04:38:16.464Z,16.42
2023-05-12T04:41:18.379Z,19.50
2023-05-12T04:44:19.995Z,16.25
2023-05-12T04:47:21.983Z,15.73
2023-05-12T04:50:23.543Z,15.23
2023-05-12T04:53:25.162Z,14.18
2023-05-12T04:56:27.562Z,13.23
2023-05-12T04:59:30.539Z,14.73
2023-05-12T05:02:32.377Z,12.73
2023-05-12T05:05:34.222Z,14.52
2023-05-12T05:08:36.949Z,13.55
2023-05-12T05:11:38.756Z,11.45
2023-05-12T05:14:40.440Z,13.27
2023-05-12T05:17:43.307Z,13.55
2023-05-12T05:20:54.654Z,11.48
2023-05-12T05:24:00.212Z,11.85
2023-05-12T05:27:03.153Z,13.10
2023-05-12T05:30:07.874Z,14.25
2023-05-12T05:33:12.567Z,16.87
2023-05-12T05:36:14.847Z,17.17
2023-05-12T05:39:16.641Z,14.93
2023-05-12T05:42:18.982Z,16.10
2023-05-12T05:45:20.890Z,15.15
2023-05-12T05:48:23.393Z,15.90
2023-05-12T05:51:25.525Z,18.20
2023-05-12T05:54:27.357Z,16.67
2023-05-12T05:57:29.317Z,15.68
2023-05-12T06:00:33.146Z,17.23
2023-05-12T06:03:35.121Z,16.08
2023-05-12T06:06:36.895Z,15.82
2023-05-12T06:09:38.603Z,16.95
2023-05-12T06:12:41.466Z,15.68
2023-05-12T06:15:43.543Z,16.95
2023-05-12T06:18:46.804Z,16.92
2023-05-12T06:21:48.493Z,15.80
2023-05-12T06:24:50.195Z,17.10
2023-05-12T06:27:52.943Z,16.35
2023-05-12T06:30:54.627Z,17.00
2023-05-12T06:33:56.174Z,16.77
2023-05-12T06:36:57.917Z,16.48
2023-05-12T06:39:59.540Z,17.10
2023-05-12T06:43:01.093Z,15.07
2023-05-12T06:46:02.825Z,15.63
2023-05-12T06:49:04.399Z,14.63
2023-05-12T06:52:07.673Z,15.05
2023-05-12T06:55:09.590Z,15.43
2023-05-12T06:58:11.355Z,15.18
2023-05-12T07:01:13.087Z,16.27
2023-05-12T07:04:15.088Z,15.43
2023-05-12T07:07:16.763Z,15.50
2023-05-12T07:10:18.384Z,15.65
2023-05-12T07:13:20.052Z,17.13
2023-05-12T07:16:21.763Z,17.00
2023-05-12T07:19:23.394Z,15.15
2023-05-12T07:22:25.339Z,16.30
2023-05-12T07:25:28.180Z,16.02
2023-05-12T07:28:38.067Z,16.60
2023-05-12T07:31:39.880Z,17.50
2023-05-12T07:34:41.501Z,15.45
2023-05-12T07:37:43.366Z,15.23
2023-05-12T07:40:45.297Z,14.98
2023-05-12T07:43:46.956Z,14.57
2023-05-12T07:46:48.736Z,14.70
2023-05-12T07:49:51.573Z,14.50
2023-05-12T07:52:54.115Z,12.93
2023-05-12T07:55:55.795Z,11.73
2023-05-12T07:58:57.518Z,13.70
2023-05-12T08:01:59.115Z,13.00
2023-05-12T08:05:00.908Z,13.35
2023-05-12T08:08:03.456Z,13.45
2023-05-12T08:11:05.258Z,12.65
2023-05-12T08:14:06.944Z,12.43
2023-05-12T08:17:08.684Z,13.52
2023-05-12T08:20:10.857Z,12.13
2023-05-12T08:23:12.569Z,11.38
2023-05-12T08:26:14.289Z,11.75
2023-05-12T08:29:16.956Z,11.52
2023-05-12T08:32:28.825Z,12.70
2023-05-12T08:35:30.605Z,9.82
2023-05-12T08:38:32.737Z,10.30
2023-05-12T08:41:44.802Z,11.75
2023-05-12T08:44:47.806Z,11.70
2023-05-12T08:47:50.979Z,10.02
2023-05-12T08:50:54.098Z,10.80
2023-05-12T08:53:56.217Z,10.32
2023-05-12T09:00:03.442Z,10.50
2023-05-12T09:03:06.942Z,10.43
2023-05-12T09:06:10.873Z,10.65
2023-05-12T09:09:14.163Z,12.68
2023-05-12T09:12:18.393Z,13.00
2023-05-12T09:15:27.323Z,11.90
2023-05-12T09:18:47.089Z,11.43
2023-05-12T09:21:48.985Z,9.85
2023-05-12T09:24:50.769Z,11.55
2023-05-12T09:27:56.625Z,10.38
2023-05-12T09:30:58.321Z,9.30
2023-05-12T09:34:02.248Z,8.63
2023-05-12T09:37:07.802Z,7.47
2023-05-12T09:40:11.581Z,10.63
2023-05-12T09:43:15.312Z,8.88
2023-05-12T09:46:18.752Z,8.85
2023-05-12T09:49:25.616Z,8.57
2023-05-12T09:52:27.308Z,10.05
2023-05-12T09:55:29.171Z,9.98
2023-05-12T09:58:31.308Z,9.63
2023-05-12T10:01:33.240Z,9.95
2023-05-12T10:04:55.445Z,9.85
2023-05-12T10:08:00.430Z,9.63
2023-05-12T10:11:05.543Z,9.45
2023-05-12T10:14:09.701Z,9.75
2023-05-12T10:17:12.616Z,9.45
2023-05-12T10:20:15.311Z,10.20
2023-05-12T10:23:18.901Z,8.35
2023-05-12T10:26:22.312Z,7.82
2023-05-12T10:29:30.159Z,9.45
2023-05-12T10:32:32.103Z,8.90
2023-05-12T10:35:35.306Z,9.00
2023-05-12T10:38:37.504Z,8.82
2023-05-12T10:41:39.255Z,8.80
2023-05-12T10:44:52.032Z,8.80
2023-05-12T10:48:09.697Z,9.20
2023-05-12T10:51:12.962Z,9.13
2023-05-12T10:54:24.515Z,8.48
2023-05-12T10:57:27.047Z,8.38
2023-05-12T11:00:30.447Z,8.93
2023-05-12T11:03:35.581Z,9.05
2023-05-12T11:06:39.421Z,8.75
2023-05-12T11:09:56.890Z,8.38
2023-05-12T11:13:00.577Z,9.20
2023-05-12T11:16:02.320Z,9.45
2023-05-12T11:19:05.645Z,8.10
2023-05-12T11:22:12.379Z,8.00
2023-05-12T11:25:14.532Z,8.13
2023-05-12T11:28:16.309Z,9.15
2023-05-12T11:31:22.665Z,8.88
2023-05-12T11:34:25.752Z,8.68
2023-05-12T11:37:27.406Z,7.82
2023-05-12T11:40:29.063Z,8.43
2023-05-12T11:43:30.644Z,8.57
2023-05-12T11:46:32.410Z,8.20
2023-05-12T11:49:34.795Z,8.00
2023-05-12T11:52:36.361Z,8.55
2023-05-12T11:55:37.962Z,8.93
2023-05-12T11:58:39.647Z,8.52
2023-05-12T12:01:46.974Z,7.18
2023-05-12T12:04:48.707Z,7.63
2023-05-12T12:07:50.566Z,6.68
2023-05-12T12:10:52.289Z,6.70
2023-05-12T12:13:59.442Z,7.03
2023-05-12T12:17:02.742Z,6.50
2023-05-12T12:20:04.569Z,6.40
2023-05-12T12:23:06.199Z,6.40
2023-05-12T12:26:08.035Z,6.20
2023-05-12T12:29:09.683Z,5.57
2023-05-12T12:32:11.368Z,5.90
2023-05-12T12:35:14.228Z,7.28
2023-05-12T12:38:16.493Z,6.57
2023-05-12T12:41:18.280Z,5.95
2023-05-12T12:44:19.956Z,6.18
2023-05-12T12:47:21.508Z,5.68
2023-05-12T12:50:24.966Z,6.93
2023-05-12T12:53:27.599Z,5.45
2023-05-12T12:56:30.020Z,5.20
2023-05-12T12:59:31.535Z,5.20
2023-05-12T13:02:33.638Z,6.30
2023-05-12T13:05:35.653Z,5.63
2023-05-12T13:08:37.210Z,5.60
2023-05-12T13:11:38.855Z,5.85
2023-05-12T13:14:40.617Z,5.30
2023-05-12T13:17:42.486Z,5.88
2023-05-12T13:20:44.362Z,5.97
2023-05-12T13:23:48.079Z,5.57
2023-05-12T13:26:49.700Z,5.65
2023-05-12T13:29:52.243Z,6.90
2023-05-12T13:32:54.191Z,5.53
2023-05-12T13:35:56.047Z,5.63
2023-05-12T13:38:57.557Z,5.57
2023-05-12T13:42:00.277Z,5.78
2023-05-12T13:45:01.974Z,5.57
2023-05-12T13:48:03.690Z,5.47
2023-05-12T13:51:05.727Z,6.30
2023-05-12T13:54:08.508Z,5.30
2023-05-12T13:57:10.138Z,4.80
2023-05-12T14:00:13.672Z,5.20
2023-05-12T14:03:21.739Z,5.00
2023-05-12T14:06:23.566Z,4.90
2023-05-12T14:09:25.139Z,4.45
2023-05-12T14:12:26.830Z,5.00
2023-05-12T14:15:44.125Z,5.68
2023-05-12T14:18:49.269Z,6.88
2023-05-12T14:21:51.098Z,5.68
2023-05-12T14:24:52.913Z,5.05
2023-05-12T14:27:54.631Z,6.65
2023-05-12T14:30:56.316Z,5.53
2023-05-12T14:33:58.008Z,4.45
2023-05-12T14:36:59.532Z,6.05
2023-05-12T14:40:01.401Z,4.80
2023-05-12T14:43:03.390Z,4.78
2023-05-12T14:46:06.287Z,3.70
2023-05-12T14:49:11.377Z,3.90
2023-05-12T14:52:12.918Z,5.03
2023-05-12T14:55:15.065Z,4.00
2023-05-12T14:58:17.810Z,3.58
2023-05-12T15:01:19.428Z,5.57
2023-05-12T15:04:21.242Z,3.60
2023-05-12T15:07:22.899Z,3.65
2023-05-12T15:10:25.015Z,3.88
2023-05-12T15:13:26.674Z,5.30
2023-05-12T15:16:28.928Z,4.95
2023-05-12T15:19:31.314Z,8.10
2023-05-12T15:22:33.162Z,4.70
2023-05-12T15:25:37.841Z,4.57
2023-05-12T15:28:39.382Z,6.28
2023-05-12T15:31:41.020Z,3.97
2023-05-12T15:34:43.239Z,4.05
2023-05-12T15:37:44.804Z,4.18
2023-05-12T15:40:47.332Z,4.05
2023-05-12T15:43:49.237Z,4.43
2023-05-12T15:46:51.300Z,4.30
2023-05-12T15:49:53.436Z,4.70
2023-05-12T15:52:55.159Z,4.72
2023-05-12T15:56:04.236Z,4.30
2023-05-12T15:59:06.881Z,4.30
2023-05-12T16:02:08.981Z,4.50
2023-05-12T16:05:12.485Z,4.53
2023-05-12T16:08:14.718Z,5.57
2023-05-12T16:11:16.647Z,4.32
2023-05-12T16:14:18.785Z,3.97
2023-05-12T16:17:22.045Z,3.97
2023-05-12T16:20:23.668Z,4.22
2023-05-12T16:23:25.699Z,4.90
2023-05-12T16:26:27.730Z,4.55
2023-05-12T16:29:29.413Z,7.45
2023-05-12T16:32:31.592Z,5.00
2023-05-12T16:35:33.641Z,3.55
2023-05-12T16:38:35.308Z,4.70
2023-05-12T16:41:37.264Z,4.28
2023-05-12T16:44:38.825Z,3.70
2023-05-12T16:47:40.632Z,3.75
2023-05-12T16:50:42.258Z,4.40
2023-05-12T16:53:43.903Z,4.35
2023-05-12T16:56:45.778Z,4.65
2023-05-12T16:59:48.641Z,3.72
2023-05-12T17:02:50.539Z,4.30
2023-05-12T17:05:52.676Z,4.40
2023-05-12T17:08:54.343Z,4.28
2023-05-12T17:11:55.946Z,4.72
2023-05-12T17:15:07.102Z,4.63
2023-05-12T17:18:10.290Z,4.57
2023-05-12T17:21:12.359Z,4.78
2023-05-12T17:24:14.147Z,4.82
2023-05-12T17:27:15.947Z,6.03
2023-05-12T17:30:18.568Z,6.22
2023-05-12T17:33:20.118Z,5.20
2023-05-12T17:36:22.048Z,5.10
2023-05-12T17:39:23.653Z,5.68
2023-05-12T17:42:28.626Z,6.00
2023-05-12T17:45:30.263Z,5.82
2023-05-12T17:48:33.381Z,6.25
2023-05-12T17:51:35.491Z,7.78
2023-05-12T17:54:38.135Z,6.30
2023-05-12T17:57:39.989Z,7.05
2023-05-12T18:00:41.550Z,6.32
2023-05-12T18:03:43.837Z,6.90
2023-05-12T18:06:50.049Z,6.95
2023-05-12T18:12:54.279Z,5.20
2023-05-12T18:15:57.026Z,5.55
2023-05-12T18:18:59.263Z,5.57
2023-05-12T18:22:01.348Z,6.38
2023-05-12T18:25:02.978Z,6.50
2023-05-12T18:28:06.532Z,5.97
2023-05-12T18:31:15.976Z,5.32
2023-05-12T18:34:18.168Z,5.97
2023-05-12T18:37:19.684Z,5.35
2023-05-12T18:40:21.215Z,4.72
2023-05-12T18:43:22.728Z,5.00
2023-05-12T18:46:24.382Z,4.80
2023-05-12T18:49:26.110Z,18.67
2023-05-12T18:52:27.666Z,10.75
2023-05-12T18:55:29.256Z,12.07
2023-05-12T18:58:30.844Z,8.75
2023-05-12T19:01:33.533Z,6.40
2023-05-12T19:04:35.136Z,5.65
2023-05-12T19:07:36.946Z,4.88
2023-05-12T19:10:39.977Z,5.53
2023-05-12T19:13:45.203Z,5.88
2023-05-12T19:16:46.912Z,4.90
2023-05-12T19:19:49.259Z,4.47
2023-05-12T19:22:51.032Z,7.22
2023-05-12T19:25:52.802Z,6.70
2023-05-12T19:28:54.420Z,6.25
2023-05-12T19:31:56.214Z,5.55
2023-05-12T19:34:58.194Z,6.65
2023-05-12T19:37:59.909Z,6.30
2023-05-12T19:41:01.562Z,5.90
2023-05-12T19:44:03.856Z,5.57
2023-05-12T19:47:05.799Z,6.93
2023-05-12T19:50:07.956Z,5.75
2023-05-12T19:53:09.795Z,6.05
2023-05-12T19:56:11.425Z,11.45
2023-05-12T19:59:13.021Z,6.72
2023-05-12T20:02:16.738Z,5.53
2023-05-12T20:05:18.498Z,5.68
2023-05-12T20:08:20.093Z,6.50
2023-05-12T20:11:21.610Z,5.10
2023-05-12T20:14:23.439Z,5.50
2023-05-12T20:17:25.103Z,5.03
2023-05-12T20:20:26.746Z,6.38
2023-05-12T20:23:28.332Z,5.20
2023-05-12T20:26:30.652Z,5.75
2023-05-12T20:29:32.853Z,4.95
2023-05-12T20:32:34.414Z,5.72
2023-05-12T20:35:36.074Z,6.35
2023-05-12T20:38:38.068Z,5.00
2023-05-12T20:41:40.374Z,5.50
2023-05-12T20:44:42.364Z,5.97
2023-05-12T20:47:43.979Z,6.15
2023-05-12T20:50:45.787Z,5.93
2023-05-12T20:53:47.599Z,5.43
2023-05-12T20:56:49.249Z,5.60
2023-05-12T20:59:54.489Z,5.85
2023-05-12T21:02:57.911Z,5.47
2023-05-12T21:06:00.381Z,5.78
2023-05-12T21:09:02.139Z,6.15
2023-05-12T21:12:03.902Z,6.68
2023-05-12T21:15:06.265Z,5.70
2023-05-12T21:18:08.998Z,5.57
2023-05-12T21:21:10.856Z,5.93
2023-05-12T21:24:12.437Z,6.10
2023-05-12T21:27:13.957Z,5.10
2023-05-12T21:30:16.662Z,5.82
2023-05-12T21:33:18.211Z,5.28
2023-05-12T21:36:19.733Z,6.85
2023-05-12T21:39:21.899Z,6.45
2023-05-12T21:42:24.892Z,5.93
2023-05-12T21:45:26.580Z,5.80
2023-05-12T21:48:28.212Z,6.00
2023-05-12T21:51:29.839Z,6.30
2023-05-12T21:54:33.440Z,5.65
2023-05-12T21:57:35.572Z,5.53
2023-05-12T22:00:37.213Z,5.90
2023-05-12T22:03:38.869Z,6.03
2023-05-12T22:06:40.374Z,6.28
2023-05-12T22:09:41.960Z,5.53
2023-05-12T22:12:45.815Z,5.82
2023-05-12T22:15:47.448Z,6.18
2023-05-12T22:18:49.455Z,6.10
2023-05-12T22:21:51.130Z,5.55
2023-05-12T22:24:52.689Z,5.55
2023-05-12T22:27:54.507Z,6.22
2023-05-12T22:30:56.101Z,5.60
2023-05-12T22:33:57.723Z,6.63
2023-05-12T22:36:59.349Z,5.60
2023-05-12T22:40:00.903Z,6.65
2023-05-12T22:43:02.843Z,5.85
2023-05-12T22:46:07.640Z,6.68
2023-05-12T22:49:09.183Z,5.43
2023-05-12T22:52:11.524Z,5.70
2023-05-12T22:55:13.245Z,8.43
2023-05-12T22:58:16.137Z,6.20
2023-05-12T23:01:18.599Z,5.75
2023-05-12T23:04:20.431Z,6.45
2023-05-12T23:07:22.192Z,6.65
2023-05-12T23:10:24.057Z,6.03
2023-05-12T23:13:25.718Z,5.90
2023-05-12T23:16:27.399Z,7.00
2023-05-12T23:19:28.967Z,6.03
2023-05-12T23:22:30.510Z,5.90
2023-05-12T23:25:32.220Z,5.53
2023-05-12T23:28:33.857Z,5.65
2023-05-12T23:31:35.472Z,5.63
2023-05-12T23:34:40.208Z,6.65
2023-05-12T23:37:41.835Z,5.63
2023-05-12T23:40:43.722Z,5.75
2023-05-12T23:43:45.370Z,6.68
2023-05-12T23:46:47.197Z,6.25
2023-05-12T23:49:48.728Z,6.13
2023-05-12T23:52:53.344Z,6.55
2023-05-12T23:55:54.904Z,6.00
2023-05-12T23:58:56.656Z,5.57
